Accueil
METAR-TAF:

METAR-TAF

Aéroports :

Aérodrome de Koumac

Koumac, Nouvelle-Calédonie

latitude: 20-34S, longitude: 164-17E, altitude: 23 m

METAR: absent

Heure: 10:59 (23:59 UTC)

Prévision

Le bulletin a été fait il y a 59 minutes, à 23:00 UTC
Prévision valable du 18 à 00 UTC au 18 à 24 UTC
Vent 10 kt de sud-ouest
Visibilité 10 km ou plus
Nuages épars à une hauteur de 3500 ft
Nuages épars à une hauteur de 4500 ft
Nuages fragmentés à une hauteur de 5500 ft
Evoluant progressivement
du 18 à 06 UTC au 18 à 08 UTC
Vent 2 kt de direction variable
Probabilité 30% :
Temporairement
du 18 à 18 UTC au 18 à 20 UTC
Visibilité: 4000 m
brume
Evoluant progressivement
du 18 à 23 UTC au 18 à 24 UTC
Vent 10 kt de sud

TAF: NWWK 172300Z 1800/1824 23010KT 9999 SCT035 SCT045 BKN055 BECMG 1806/1808 VRB02KT PROB30 TEMPO 1818/1820 4000 BR BECMG 1823/1824 18010KT

Observations et prévisions météorologiques de plus de 4000 aéroports (messages METAR et TAF).

Les stations disponibles sont représentées par des disques jaunes et rouges sur la carte.

Passer la souris dessus pour voir le nom de la station.

Cliquer dessus pour voir les observations et prévisions météorologiques.

Pour changer de carte: cliquez sur les boutons verts avec une croix noire pour zoomer, sur le bouton vert avec un tiret pour effectuer un zoom arrière, ou sur les flèches vertes pour les cartes adjacentes.


METAR-TAF: